Time;durP1;ratioP1;P1;durP2;ratioP2;P2;SDS_P1;SDS_P2;PMS_P1;PMS_P2;Temp;Humidity;BMP_temperature;BMP_pressure;BME280_temperature;BME280_humidity;BME280_pressure;Samples;Min_cycle;Max_cycle;Signal;HPM_P1;HPM_P2
2022/06/05 00:01:41;;;;;;;4.00;0.90;;;;;;;20.68;38.19;100517.67;117269;1182;23587;-52
2022/06/05 00:04:42;;;;;;;2.50;0.90;;;;;;;20.67;38.14;100519.84;117358;1179;23625;-53
2022/06/05 00:07:17;;;;;;;2.70;1.20;;;;;;;20.64;38.03;100523.70;117234;1188;22907;-52
2022/06/05 00:09:47;;;;;;;3.70;1.10;;;;;;;20.63;38.19;100523.42;117346;1185;22961;-52
2022/06/05 00:12:16;;;;;;;2.60;1.10;;;;;;;20.61;38.31;100524.96;117319;1182;22609;-52
2022/06/05 00:14:43;;;;;;;3.80;1.00;;;;;;;20.64;38.37;100527.27;117434;1182;22905;-57
2022/06/05 00:17:18;;;;;;;1.90;0.80;;;;;;;20.66;38.27;100521.67;117066;1183;23542;-58
2022/06/05 00:19:47;;;;;;;3.60;1.20;;;;;;;20.64;38.23;100521.21;117285;1189;21842;-58
2022/06/05 00:22:14;;;;;;;1.60;1.00;;;;;;;20.55;38.42;100520.96;117349;1186;21852;-52
2022/06/05 00:24:41;;;;;;;1.50;0.90;;;;;;;20.45;38.45;100518.80;117375;1183;22964;-57
2022/06/05 00:27:20;;;;;;;4.00;1.30;;;;;;;20.23;38.67;100518.33;117329;1186;22890;-52
2022/06/05 00:30:05;;;;;;;3.50;1.20;;;;;;;20.13;38.78;100514.20;117361;1183;23556;-57
2022/06/05 00:32:39;;;;;;;4.10;1.10;;;;;;;20.04;38.75;100510.72;117332;1185;21838;-57
2022/06/05 00:35:08;;;;;;;2.50;1.30;;;;;;;20.10;38.72;100511.48;117289;1183;23634;-52
2022/06/05 00:37:48;;;;;;;2.60;1.10;;;;;;;20.10;38.75;100509.02;117303;1185;23144;-58
2022/06/05 00:40:34;;;;;;;1.30;0.90;;;;;;;20.10;38.83;100511.68;117129;1186;22913;-57
2022/06/05 00:43:03;;;;;;;2.50;1.30;;;;;;;19.98;39.18;100507.78;117156;1187;22356;-51
2022/06/05 00:45:30;;;;;;;3.60;1.40;;;;;;;20.04;39.33;100504.86;117287;1186;21842;-57
2022/06/05 00:47:58;;;;;;;2.90;1.20;;;;;;;20.10;39.42;100505.80;117431;1183;23441;-52
2022/06/05 00:50:27;;;;;;;3.00;1.00;;;;;;;20.16;39.44;100498.71;117414;1183;22617;-51
2022/06/05 00:52:57;;;;;;;3.40;1.20;;;;;;;20.22;39.39;100499.13;117337;1188;21880;-57
2022/06/05 00:55:25;;;;;;;2.00;0.90;;;;;;;20.30;39.48;100498.54;117339;1187;22901;-52
2022/06/05 00:57:53;;;;;;;3.80;1.20;;;;;;;20.38;39.50;100492.42;117306;1180;22988;-58
2022/06/05 01:00:28;;;;;;;1.40;1.00;;;;;;;20.44;39.46;100492.33;117398;1183;24232;-57
2022/06/05 01:02:56;;;;;;;3.60;1.10;;;;;;;20.49;39.50;100496.67;117288;1183;21846;-52
2022/06/05 01:05:25;;;;;;;5.20;1.30;;;;;;;20.53;39.49;100495.08;117251;1186;21847;-52
2022/06/05 01:07:52;;;;;;;1.90;1.00;;;;;;;20.53;39.61;100496.30;117481;1185;21841;-52
2022/06/05 01:10:20;;;;;;;4.10;1.00;;;;;;;20.53;39.70;100492.19;117230;1185;21860;-52
2022/06/05 01:13:23;;;;;;;4.20;1.00;;;;;;;20.55;39.79;100484.77;117254;1186;22988;-58
2022/06/05 01:16:16;;;;;;;3.00;1.00;;;;;;;20.61;39.93;100475.39;117285;1183;22981;-57
2022/06/05 01:19:02;;;;;;;1.70;0.90;;;;;;;20.67;40.01;100468.10;117145;1186;22893;-55
2022/06/05 01:21:55;;;;;;;2.90;1.20;;;;;;;20.72;40.05;100461.27;117159;1186;21849;-50
2022/06/05 01:24:44;;;;;;;2.30;1.00;;;;;;;20.76;40.15;100457.31;117071;1186;23898;-53
2022/06/05 01:27:14;;;;;;;2.00;1.10;;;;;;;20.79;40.08;100456.45;117373;1182;22976;-56
2022/06/05 01:29:46;;;;;;;5.10;1.30;;;;;;;20.81;40.00;100456.55;117201;1183;23590;-57
2022/06/05 01:32:17;;;;;;;5.30;1.30;;;;;;;20.82;40.15;100460.62;117147;1183;22966;-56
2022/06/05 01:34:50;;;;;;;4.10;1.40;;;;;;;20.83;40.18;100461.81;117292;1185;24155;-56
2022/06/05 01:37:37;;;;;;;3.20;1.30;;;;;;;20.83;40.30;100458.55;117437;1186;21839;-56
2022/06/05 01:40:26;;;;;;;2.70;1.20;;;;;;;20.86;40.27;100456.80;117193;1188;23541;-50
2022/06/05 01:43:05;;;;;;;2.00;0.90;;;;;;;20.92;40.33;100460.41;117136;1183;22921;-50
2022/06/05 01:45:38;;;;;;;3.60;1.50;;;;;;;20.97;40.42;100465.50;117465;1185;21849;-50
2022/06/05 01:48:08;;;;;;;2.10;1.10;;;;;;;20.98;40.47;100465.25;117279;1180;22914;-56
2022/06/05 01:50:41;;;;;;;4.60;1.30;;;;;;;20.99;40.44;100463.81;117256;1189;21877;-56
2022/06/05 01:53:14;;;;;;;2.00;1.00;;;;;;;21.00;40.44;100461.77;117286;1182;22607;-50
2022/06/05 01:55:43;;;;;;;8.80;1.60;;;;;;;21.02;40.47;100452.91;117370;1183;22921;-56
2022/06/05 01:58:12;;;;;;;2.90;1.20;;;;;;;21.05;40.48;100450.09;117305;1183;22829;-50
2022/06/05 02:00:39;;;;;;;4.60;1.20;;;;;;;21.09;40.48;100443.77;117254;1188;22173;-50
2022/06/05 02:03:17;;;;;;;5.50;1.30;;;;;;;21.16;40.44;100445.02;117245;1183;23443;-50
2022/06/05 02:05:48;;;;;;;7.00;1.60;;;;;;;21.22;40.55;100441.48;117138;1186;21849;-50
2022/06/05 02:08:35;;;;;;;;;;;;;;;21.27;40.51;100440.13;117329;1185;22914;-56
2022/06/05 02:11:05;;;;;;;3.10;1.30;;;;;;;21.31;40.50;100435.95;117174;1185;21837;-56
2022/06/05 02:13:32;;;;;;;3.90;1.50;;;;;;;21.36;40.61;100436.60;117395;1185;21846;-56
2022/06/05 02:15:59;;;;;;;1.90;1.20;;;;;;;21.38;40.63;100436.27;117098;1182;24135;-55
2022/06/05 02:18:27;;;;;;;6.70;1.40;;;;;;;21.38;40.68;100433.58;117196;1189;21839;-56
2022/06/05 02:20:54;;;;;;;3.40;1.10;;;;;;;21.40;40.71;100431.20;117343;1183;23980;-50
2022/06/05 02:23:28;;;;;;;2.70;1.30;;;;;;;21.42;40.78;100428.74;115432;1201;543901;-57
2022/06/05 02:25:55;;;;;;;4.10;1.20;;;;;;;21.40;40.80;100430.84;116830;1192;21843;-51
2022/06/05 02:28:22;;;;;;;4.10;1.50;;;;;;;21.40;40.85;100436.70;116824;1189;23576;-56
2022/06/05 02:31:04;;;;;;;3.70;1.00;;;;;;;21.42;40.80;100436.42;116785;1192;22164;-56
2022/06/05 02:33:49;;;;;;;3.90;1.50;;;;;;;21.46;40.84;100437.11;116771;1192;22094;-56
2022/06/05 02:36:38;;;;;;;4.70;1.60;;;;;;;21.47;40.86;100439.14;116827;1189;22597;-56
2022/06/05 02:39:30;;;;;;;2.00;1.20;;;;;;;21.51;41.00;100443.42;116832;1189;23563;-51
2022/06/05 02:42:03;;;;;;;2.70;1.60;;;;;;;21.53;40.94;100439.73;116747;1189;22998;-56
2022/06/05 02:44:44;;;;;;;4.70;1.40;;;;;;;21.55;40.84;100442.29;116843;1189;21851;-51
2022/06/05 02:47:38;;;;;;;2.70;1.30;;;;;;;21.58;41.00;100442.47;116771;1188;21961;-51
2022/06/05 02:50:19;;;;;;;3.60;1.80;;;;;;;21.63;40.98;100440.27;116757;1192;21852;-51
2022/06/05 02:52:47;;;;;;;3.30;1.10;;;;;;;21.68;40.95;100441.39;116810;1192;21856;-51
2022/06/05 02:55:16;;;;;;;2.00;1.30;;;;;;;21.73;40.91;100445.23;116669;1191;21861;-51
2022/06/05 02:57:43;;;;;;;6.00;1.50;;;;;;;21.78;40.90;100446.73;116738;1192;21874;-51
2022/06/05 03:00:13;;;;;;;3.80;1.20;;;;;;;21.82;40.97;100445.08;116828;1186;22160;-50
2022/06/05 03:05:26;;;;;;;8.80;2.10;;;;;;;21.89;40.92;100436.80;116694;1192;21997;-51
2022/06/05 03:07:53;;;;;;;2.50;1.40;;;;;;;21.92;41.03;100434.64;116750;1189;23617;-56
2022/06/05 03:10:20;;;;;;;5.30;1.80;;;;;;;21.95;41.08;100430.58;117615;1189;22909;-56
2022/06/05 03:12:47;;;;;;;10.80;2.00;;;;;;;21.98;41.12;100425.36;116813;1189;21855;-52
2022/06/05 03:15:15;;;;;;;13.50;2.30;;;;;;;22.03;41.11;100424.17;116775;1189;22069;-56
2022/06/05 03:17:42;;;;;;;14.20;1.90;;;;;;;22.11;40.91;100419.40;116889;1189;23475;-52
2022/06/05 03:20:11;;;;;;;12.30;2.00;;;;;;;22.22;40.88;100418.39;116790;1189;22992;-52
2022/06/05 03:22:38;;;;;;;9.90;5.00;;;;;;;22.32;40.92;100416.36;116796;1191;21859;-57
2022/06/05 03:25:06;;;;;;;6.50;2.20;;;;;;;22.38;41.07;100419.77;116793;1189;22886;-52
2022/06/05 03:27:33;;;;;;;6.00;2.20;;;;;;;22.44;41.13;100420.65;116789;1189;22832;-56
2022/06/05 03:30:00;;;;;;;11.10;3.50;;;;;;;22.49;41.27;100419.36;116814;1190;22088;-52
2022/06/05 03:32:27;;;;;;;12.50;2.40;;;;;;;22.54;41.32;100418.27;116827;1186;21863;-56
2022/06/05 03:34:54;;;;;;;9.20;2.00;;;;;;;22.60;41.38;100419.51;116748;1190;22970;-52
2022/06/05 03:37:21;;;;;;;14.20;2.00;;;;;;;22.68;41.24;100418.98;116670;1189;23560;-52
2022/06/05 03:39:48;;;;;;;6.60;1.90;;;;;;;22.76;41.46;100417.98;116750;1189;22922;-56
2022/06/05 03:42:15;;;;;;;21.50;2.90;;;;;;;22.84;41.26;100416.96;116754;1189;23437;-53
2022/06/05 03:44:43;;;;;;;11.50;2.20;;;;;;;22.94;41.29;100409.16;116803;1189;22922;-52
2022/06/05 03:47:12;;;;;;;7.50;1.50;;;;;;;23.06;41.32;100399.80;116797;1189;22702;-54
2022/06/05 03:49:41;;;;;;;6.40;1.80;;;;;;;23.19;41.29;100390.60;116670;1192;22924;-52
2022/06/05 03:52:10;;;;;;;6.20;1.50;;;;;;;23.32;41.36;100384.23;116628;1192;23439;-57
2022/06/05 03:54:38;;;;;;;7.80;1.80;;;;;;;23.54;41.19;100384.19;117680;1191;21912;-57
2022/06/05 03:57:05;;;;;;;6.20;1.30;;;;;;;23.74;41.14;100384.86;117271;1192;22959;-52
2022/06/05 03:59:36;;;;;;;4.10;1.30;;;;;;;23.87;41.11;100381.67;116812;1189;23442;-54
2022/06/05 04:02:04;;;;;;;;;;;;;;;24.04;41.06;100384.82;116811;1189;21977;-56
2022/06/05 04:04:32;;;;;;;3.80;1.00;;;;;;;24.25;41.06;100387.11;116741;1187;23012;-53
2022/06/05 04:07:00;;;;;;;5.80;1.60;;;;;;;24.46;41.06;100390.14;116749;1189;23567;-57
2022/06/05 04:09:27;;;;;;;2.20;1.10;;;;;;;24.75;40.81;100389.77;116775;1192;21881;-52
2022/06/05 04:11:53;;;;;;;4.20;1.50;;;;;;;25.00;40.52;100386.90;116759;1189;22056;-52
2022/06/05 04:14:21;;;;;;;6.10;1.30;;;;;;;25.17;40.24;100386.02;116804;1189;21896;-57
2022/06/05 04:16:48;;;;;;;2.80;1.20;;;;;;;25.19;40.22;100382.27;116801;1189;22001;-56
2022/06/05 04:19:15;;;;;;;2.40;1.60;;;;;;;25.36;40.03;100376.91;116786;1189;23547;-57
2022/06/05 04:21:44;;;;;;;6.90;1.60;;;;;;;25.50;39.77;100374.08;116749;1189;21858;-54
2022/06/05 04:24:14;;;;;;;6.80;1.70;;;;;;;25.47;39.68;100375.23;116955;1189;22991;-57
2022/06/05 04:26:41;;;;;;;3.30;1.70;;;;;;;25.49;39.63;100377.60;116790;1188;23557;-53
2022/06/05 04:29:09;;;;;;;8.70;1.70;;;;;;;25.54;39.53;100373.46;116798;1192;21855;-53
2022/06/05 04:31:37;;;;;;;7.60;2.30;;;;;;;25.60;39.56;100371.96;116788;1189;22353;-53
2022/06/05 04:34:06;;;;;;;7.00;2.30;;;;;;;25.66;39.45;100368.73;116837;1189;22992;-53
2022/06/05 04:36:33;;;;;;;6.50;2.10;;;;;;;25.72;39.39;100369.58;116878;1189;23540;-54
2022/06/05 04:39:02;;;;;;;5.30;1.70;;;;;;;25.76;39.43;100370.14;116768;1189;22969;-57
2022/06/05 04:41:30;;;;;;;3.50;2.00;;;;;;;25.81;39.42;100374.98;116802;1189;22911;-54
2022/06/05 04:43:57;;;;;;;10.50;2.50;;;;;;;25.89;39.37;100376.56;116859;1192;22825;-54
2022/06/05 04:46:26;;;;;;;2.70;1.20;;;;;;;25.94;39.37;100376.14;116791;1186;21875;-53
2022/06/05 04:48:53;;;;;;;3.30;1.50;;;;;;;25.95;39.16;100367.85;116756;1192;22992;-57
2022/06/05 04:51:21;;;;;;;4.70;1.40;;;;;;;25.93;39.13;100364.35;116742;1192;23636;-57
2022/06/05 04:53:49;;;;;;;2.10;1.10;;;;;;;25.97;39.23;100368.38;116844;1192;22962;-54
2022/06/05 04:56:18;;;;;;;5.60;1.60;;;;;;;25.99;39.18;100371.30;116854;1192;22993;-54
2022/06/05 04:58:45;;;;;;;3.00;1.50;;;;;;;25.99;39.22;100369.69;116875;1189;22939;-54
2022/06/05 05:01:20;;;;;;;3.70;1.50;;;;;;;26.04;39.26;100371.65;116732;1189;22636;-54
2022/06/05 05:03:47;;;;;;;2.30;1.20;;;;;;;26.10;39.19;100365.63;116848;1191;21957;-57
2022/06/05 05:06:15;;;;;;;5.70;1.90;;;;;;;26.15;39.29;100365.42;116839;1192;21855;-53
2022/06/05 05:08:42;;;;;;;4.70;1.60;;;;;;;26.23;39.28;100362.11;116776;1190;22969;-55
2022/06/05 05:11:09;;;;;;;2.90;1.30;;;;;;;26.32;39.22;100360.46;116730;1191;24240;-54
2022/06/05 05:13:36;;;;;;;3.80;1.60;;;;;;;26.46;39.17;100360.70;116706;1191;24162;-57
2022/06/05 05:16:04;;;;;;;3.60;1.90;;;;;;;26.57;38.95;100360.69;116828;1190;21836;-54
2022/06/05 05:18:32;;;;;;;6.40;1.90;;;;;;;26.63;38.83;100357.67;116710;1189;22902;-56
2022/06/05 05:21:09;;;;;;;3.50;1.90;;;;;;;26.67;38.59;100358.13;116775;1189;23530;-54
2022/06/05 05:23:36;;;;;;;4.80;2.20;;;;;;;26.69;38.35;100359.95;116831;1189;21927;-58
2022/06/05 05:26:12;;;;;;;3.20;1.50;;;;;;;26.70;38.24;100363.27;116832;1192;21894;-57
2022/06/05 05:28:40;;;;;;;3.00;1.80;;;;;;;26.77;38.31;100354.77;116796;1189;21891;-55
2022/06/05 05:31:09;;;;;;;3.40;2.10;;;;;;;26.81;38.24;100350.33;116826;1189;23589;-54
2022/06/05 05:33:37;;;;;;;3.20;2.00;;;;;;;26.83;38.14;100350.18;116808;1192;21890;-57
2022/06/05 05:36:06;;;;;;;3.20;1.90;;;;;;;26.86;37.99;100347.58;116805;1192;22071;-55
2022/06/05 05:38:33;;;;;;;3.60;2.20;;;;;;;26.94;38.10;100345.86;116827;1192;22825;-58
2022/06/05 05:43:47;;;;;;;4.30;2.10;;;;;;;27.17;38.22;100343.25;116853;1191;21858;-57
2022/06/05 05:46:14;;;;;;;3.00;1.80;;;;;;;27.27;37.88;100342.59;116762;1189;22617;-57
2022/06/05 05:48:41;;;;;;;4.40;2.30;;;;;;;27.34;37.64;100345.33;116799;1191;23634;-55
2022/06/05 05:51:13;;;;;;;3.40;2.10;;;;;;;27.35;37.60;100345.45;116736;1192;23685;-55
2022/06/05 05:53:40;;;;;;;8.80;3.50;;;;;;;27.39;37.66;100345.38;116801;1191;22973;-57
2022/06/05 05:56:10;;;;;;;4.60;3.10;;;;;;;27.47;37.59;100341.71;116738;1191;21885;-55
2022/06/05 05:58:37;;;;;;;6.80;3.80;;;;;;;27.55;37.46;100339.42;116865;1192;21855;-55
2022/06/05 06:01:07;;;;;;;6.90;2.40;;;;;;;27.59;37.58;100335.26;116777;1189;22803;-55
2022/06/05 06:03:35;;;;;;;5.20;2.00;;;;;;;27.65;37.60;100329.89;116863;1189;22324;-54
2022/06/05 06:06:02;;;;;;;4.20;1.80;;;;;;;27.76;37.58;100325.57;116775;1189;22928;-56
2022/06/05 06:08:30;;;;;;;3.90;2.10;;;;;;;27.81;37.30;100319.22;116812;1190;21823;-57
2022/06/05 06:10:57;;;;;;;6.30;3.30;;;;;;;27.79;37.11;100314.84;116804;1192;23624;-58
2022/06/05 06:13:24;;;;;;;4.00;1.70;;;;;;;27.77;37.02;100315.07;116756;1192;22813;-57
2022/06/05 06:15:52;;;;;;;5.50;2.10;;;;;;;27.73;36.99;100314.79;116659;1192;21856;-57
2022/06/05 06:18:21;;;;;;;7.00;4.40;;;;;;;27.69;37.00;100312.30;116683;1192;23000;-55
2022/06/05 06:20:48;;;;;;;10.10;5.60;;;;;;;27.68;37.11;100314.35;116794;1192;22905;-57
2022/06/05 06:23:15;;;;;;;5.70;3.50;;;;;;;27.69;37.10;100314.42;117230;1186;22924;-54
2022/06/05 06:25:43;;;;;;;6.70;3.60;;;;;;;27.71;37.10;100320.63;116996;1188;21904;-56
2022/06/05 06:28:10;;;;;;;5.10;2.50;;;;;;;27.72;37.09;100315.45;117024;1186;22694;-56
2022/06/05 06:30:40;;;;;;;3.70;2.00;;;;;;;27.81;37.31;100315.75;117033;1186;21902;-57
2022/06/05 06:33:08;;;;;;;3.50;2.00;;;;;;;28.03;36.98;100316.44;117110;1186;21847;-55
2022/06/05 06:35:41;;;;;;;5.00;2.00;;;;;;;28.33;36.90;100311.87;117041;1188;23452;-57
2022/06/05 06:38:08;;;;;;;2.80;1.60;;;;;;;28.61;36.95;100309.42;116973;1186;22918;-57
2022/06/05 06:40:36;;;;;;;2.60;1.60;;;;;;;28.91;36.72;100315.71;117252;1189;23592;-56
2022/06/05 06:43:03;;;;;;;2.60;1.80;;;;;;;29.23;36.68;100314.14;117064;1186;22094;-54
2022/06/05 06:45:31;;;;;;;5.60;1.50;;;;;;;29.64;36.51;100308.34;116903;1188;22918;-54
2022/06/05 06:47:58;;;;;;;3.20;1.80;;;;;;;30.16;36.30;100309.64;117040;1189;22434;-54
2022/06/05 06:50:26;;;;;;;5.30;2.00;;;;;;;30.58;35.94;100305.20;117132;1189;22616;-57
2022/06/05 06:52:53;;;;;;;4.30;1.60;;;;;;;31.05;36.20;100302.44;117013;1189;22622;-55
2022/06/05 06:55:20;;;;;;;3.20;1.60;;;;;;;31.46;35.36;100305.41;116895;1186;23918;-58
2022/06/05 06:57:47;;;;;;;6.30;1.70;;;;;;;31.65;34.60;100302.16;117002;1189;21855;-55
2022/06/05 07:00:18;;;;;;;3.40;1.70;;;;;;;31.67;34.58;100304.94;117058;1186;23432;-55
2022/06/05 07:02:45;;;;;;;6.70;2.30;;;;;;;31.78;34.76;100305.41;117340;1185;22064;-55
2022/06/05 07:05:13;;;;;;;5.20;2.00;;;;;;;31.97;34.86;100305.13;117479;1185;22311;-57
2022/06/05 07:07:40;;;;;;;2.40;1.40;;;;;;;32.22;34.54;100306.84;117409;1183;24142;-55
2022/06/05 07:10:08;;;;;;;2.70;1.30;;;;;;;32.31;33.87;100307.38;117339;1184;21874;-55
2022/06/05 07:12:36;;;;;;;4.00;1.30;;;;;;;32.36;33.82;100309.45;117317;1182;22889;-57
2022/06/05 07:15:04;;;;;;;3.60;1.10;;;;;;;32.43;33.25;100308.16;117394;1182;22915;-58
2022/06/05 07:17:32;;;;;;;3.30;1.20;;;;;;;32.39;33.02;100310.20;117367;1185;21851;-57
2022/06/05 07:19:59;;;;;;;2.80;1.30;;;;;;;32.34;33.07;100312.09;117318;1182;22633;-56
2022/06/05 07:22:26;;;;;;;2.00;1.00;;;;;;;32.25;32.78;100314.15;117383;1186;21851;-57
2022/06/05 07:24:53;;;;;;;2.80;1.30;;;;;;;32.12;32.31;100311.36;117395;1184;22617;-57
2022/06/05 07:27:21;;;;;;;3.60;1.10;;;;;;;32.08;32.46;100313.98;117279;1185;23090;-55
2022/06/05 07:29:48;;;;;;;2.90;1.10;;;;;;;32.04;31.80;100318.13;117499;1184;23551;-57
2022/06/05 07:32:15;;;;;;;2.40;0.90;;;;;;;32.00;31.96;100320.73;117428;1184;22170;-55
2022/06/05 07:34:43;;;;;;;3.10;1.00;;;;;;;32.04;32.11;100324.14;117416;1186;21845;-57
2022/06/05 07:37:10;;;;;;;2.00;0.90;;;;;;;32.05;31.94;100331.50;117397;1183;22176;-56
2022/06/05 07:39:38;;;;;;;3.10;0.80;;;;;;;31.88;31.65;100339.19;117371;1182;21849;-57
2022/06/05 07:42:06;;;;;;;1.80;0.90;;;;;;;31.67;31.61;100346.61;117430;1186;22778;-57
2022/06/05 07:44:33;;;;;;;7.80;1.90;;;;;;;31.42;31.48;100351.30;117388;1182;23411;-58
2022/06/05 07:47:03;;;;;;;2.00;1.00;;;;;;;31.13;31.70;100347.06;117555;1184;23538;-56
2022/06/05 07:49:30;;;;;;;2.40;1.60;;;;;;;30.87;31.78;100353.27;117457;1186;22924;-55
2022/06/05 07:54:46;;;;;;;9.80;2.30;;;;;;;30.32;31.67;100366.16;117308;1186;21882;-59
2022/06/05 07:57:16;;;;;;;2.40;1.00;;;;;;;29.99;32.57;100386.97;117300;1186;23462;-53
2022/06/05 07:59:45;;;;;;;2.60;0.80;;;;;;;29.44;32.25;100392.38;117341;1184;23448;-59
2022/06/05 08:02:18;;;;;;;2.20;0.80;;;;;;;28.87;32.78;100383.23;117340;1186;22922;-59
2022/06/05 08:04:45;;;;;;;2.10;0.80;;;;;;;28.49;33.12;100378.63;117354;1186;22092;-59
2022/06/05 08:07:14;;;;;;;3.80;1.50;;;;;;;28.28;33.86;100377.27;117394;1182;22918;-59
2022/06/05 08:09:41;;;;;;;3.90;1.30;;;;;;;28.16;34.67;100378.10;117476;1185;21849;-52
2022/06/05 08:12:10;;;;;;;3.80;1.40;;;;;;;27.97;35.34;100383.83;117441;1183;21846;-51
2022/06/05 08:14:38;;;;;;;7.30;1.90;;;;;;;27.64;36.33;100384.41;117485;1182;22931;-59
2022/06/05 08:17:07;;;;;;;5.70;1.40;;;;;;;27.28;36.81;100396.05;117473;1186;21870;-51
2022/06/05 08:19:37;;;;;;;7.70;2.00;;;;;;;27.02;36.89;100401.61;117422;1186;21889;-59
2022/06/05 08:22:06;;;;;;;5.60;1.80;;;;;;;26.81;37.51;100410.27;117360;1185;21848;-54
2022/06/05 08:24:33;;;;;;;2.60;1.20;;;;;;;26.58;37.89;100417.77;117411;1185;23471;-58
2022/06/05 08:27:08;;;;;;;4.00;2.30;;;;;;;26.40;37.80;100420.85;117260;1184;23890;-59
2022/06/05 08:29:35;;;;;;;4.40;2.60;;;;;;;26.21;38.02;100420.51;117411;1183;22932;-54
2022/06/05 08:32:04;;;;;;;7.20;2.70;;;;;;;26.01;38.19;100420.97;117387;1182;23560;-54
2022/06/05 08:34:31;;;;;;;6.30;1.70;;;;;;;25.79;38.13;100420.95;117404;1183;21855;-54
2022/06/05 08:42:37;;;;;;;3.90;1.70;;;;;;;25.28;38.60;100424.90;117291;1186;21969;-59
2022/06/05 08:45:34;;;;;;;4.20;1.80;;;;;;;25.10;39.04;100427.98;117374;1184;24216;-55
2022/06/05 08:48:15;;;;;;;4.00;1.70;;;;;;;24.97;39.27;100429.86;117270;1185;21890;-54
2022/06/05 08:50:54;;;;;;;6.80;2.50;;;;;;;24.85;39.26;100424.80;117203;1182;24200;-55
2022/06/05 08:53:37;;;;;;;4.70;1.70;;;;;;;24.79;39.55;100412.42;117361;1182;21882;-59
2022/06/05 08:56:05;;;;;;;4.10;1.60;;;;;;;24.79;39.55;100406.89;117394;1184;22889;-59
2022/06/05 08:58:39;;;;;;;2.90;1.60;;;;;;;24.74;39.66;100412.11;117272;1185;21911;-58
2022/06/05 09:01:50;;;;;;;2.90;1.40;;;;;;;24.71;39.87;100420.20;117266;1184;22915;-55
2022/06/05 09:04:20;;;;;;;3.90;1.40;;;;;;;24.69;39.98;100419.63;117328;1180;21845;-55
2022/06/05 09:06:54;;;;;;;3.20;1.70;;;;;;;24.68;39.93;100417.33;117281;1182;22821;-54
2022/06/05 09:09:27;;;;;;;3.90;1.60;;;;;;;24.64;39.88;100414.71;119463;1184;21787;-55
2022/06/05 09:11:58;;;;;;;4.00;1.50;;;;;;;24.60;39.98;100410.55;119287;1184;21750;-55
2022/06/05 09:14:50;;;;;;;4.60;2.00;;;;;;;24.54;40.11;100406.29;117565;1184;21837;-54
2022/06/05 09:17:19;;;;;;;2.50;1.50;;;;;;;24.52;40.25;100401.98;117317;1183;23662;-53
2022/06/05 09:19:47;;;;;;;3.70;1.80;;;;;;;24.51;40.59;100399.70;117331;1185;22927;-54
2022/06/05 09:22:20;;;;;;;5.60;2.00;;;;;;;24.45;40.68;100396.17;117362;1183;21910;-59
2022/06/05 09:25:02;;;;;;;5.50;1.70;;;;;;;24.37;40.89;100394.02;118032;1182;21865;-54
2022/06/05 09:28:04;;;;;;;9.60;2.20;;;;;;;24.27;41.29;100403.91;117360;1182;22924;-59
2022/06/05 09:31:04;;;;;;;6.20;2.20;;;;;;;24.13;41.68;100415.41;117398;1182;23554;-59
2022/06/05 09:33:36;;;;;;;12.20;2.70;;;;;;;23.99;42.06;100411.31;117336;1186;22914;-59
2022/06/05 09:36:07;;;;;;;6.00;2.00;;;;;;;23.90;42.44;100403.48;117395;1182;21845;-59
2022/06/05 09:38:46;;;;;;;6.90;2.30;;;;;;;23.89;42.69;100402.48;117449;1186;21848;-59
2022/06/05 09:41:41;;;;;;;4.00;2.00;;;;;;;23.89;42.98;100412.66;117440;1182;23435;-51
2022/06/05 09:44:21;;;;;;;4.30;1.80;;;;;;;23.90;43.31;100410.29;117345;1186;23560;-59
2022/06/05 09:47:01;;;;;;;2.90;1.80;;;;;;;23.87;43.27;100404.55;117413;1182;21851;-58
2022/06/05 09:49:33;;;;;;;7.00;2.40;;;;;;;23.87;43.35;100408.35;117417;1183;23445;-51
2022/06/05 09:52:13;;;;;;;5.00;2.40;;;;;;;23.86;43.56;100411.45;117414;1185;21856;-59
2022/06/05 09:54:47;;;;;;;6.50;2.70;;;;;;;23.82;43.71;100421.79;117417;1183;22909;-52
2022/06/05 10:00:27;;;;;;;5.20;2.80;;;;;;;23.71;43.97;100415.49;117386;1182;23566;-51
2022/06/05 10:03:04;;;;;;;5.10;2.50;;;;;;;23.71;44.20;100414.74;118594;1186;22809;-53
2022/06/05 10:05:45;;;;;;;3.50;2.40;;;;;;;23.69;44.28;100416.56;117371;1186;21856;-52
2022/06/05 10:08:26;;;;;;;5.30;2.20;;;;;;;23.68;44.51;100409.59;117358;1182;23639;-51
2022/06/05 10:10:56;;;;;;;3.00;2.10;;;;;;;23.62;44.64;100407.19;117392;1182;23537;-59
2022/06/05 10:13:48;;;;;;;4.20;2.70;;;;;;;23.57;44.81;100408.95;117367;1185;21956;-51
2022/06/05 10:16:31;;;;;;;6.10;2.50;;;;;;;23.58;45.01;100412.06;117398;1182;23468;-59
2022/06/05 10:19:03;;;;;;;3.60;2.40;;;;;;;23.64;45.19;100412.94;117407;1184;21984;-50
2022/06/05 10:21:34;;;;;;;4.10;3.00;;;;;;;23.71;45.38;100423.75;117355;1182;22826;-58
2022/06/05 10:24:13;;;;;;;;;;;;;;;23.78;45.43;100431.49;117362;1182;21970;-59
2022/06/05 10:26:46;;;;;;;4.70;2.30;;;;;;;23.85;45.59;100430.31;117389;1183;21875;-59
2022/06/05 10:29:22;;;;;;;5.70;2.40;;;;;;;24.05;45.52;100420.39;117388;1183;21849;-58
2022/06/05 10:31:52;;;;;;;5.30;2.70;;;;;;;24.20;45.58;100415.12;117399;1182;22640;-59
2022/06/05 10:34:52;;;;;;;3.40;2.40;;;;;;;24.28;45.47;100407.02;117425;1182;21884;-59
2022/06/05 10:37:34;;;;;;;5.80;2.20;;;;;;;24.28;45.44;100402.20;117139;1186;21865;-58
2022/06/05 10:40:22;;;;;;;4.80;2.40;;;;;;;24.26;45.44;100404.70;117385;1185;21883;-59
2022/06/05 10:42:55;;;;;;;4.70;2.60;;;;;;;24.27;45.39;100403.91;117355;1182;23718;-59
2022/06/05 10:45:29;;;;;;;4.20;2.20;;;;;;;24.32;45.42;100403.67;117348;1186;21849;-60
2022/06/05 10:47:56;;;;;;;4.70;2.50;;;;;;;24.38;45.42;100404.91;117382;1182;21848;-59
2022/06/05 10:50:32;;;;;;;3.60;2.40;;;;;;;24.41;45.57;100403.77;117341;1186;21849;-59
2022/06/05 10:53:40;;;;;;;4.30;2.80;;;;;;;24.47;45.61;100400.18;117384;1182;23537;-59
2022/06/05 10:56:18;;;;;;;4.60;2.30;;;;;;;24.47;45.68;100395.13;117318;1184;23421;-59
2022/06/05 10:58:53;;;;;;;3.10;2.10;;;;;;;24.49;45.94;100395.34;117392;1183;22918;-59
2022/06/05 11:01:41;;;;;;;4.20;2.50;;;;;;;24.53;45.96;100395.41;117153;1185;21851;-59
2022/06/05 11:04:57;;;;;;;3.40;2.20;;;;;;;24.50;45.73;100393.29;117364;1184;21843;-59
2022/06/05 11:07:45;;;;;;;4.20;2.10;;;;;;;24.47;45.98;100385.39;117327;1184;24302;-59
2022/06/05 11:13:39;;;;;;;3.20;2.40;;;;;;;24.46;46.01;100384.60;117406;1183;21910;-59
2022/06/05 11:16:06;;;;;;;4.70;1.90;;;;;;;24.46;45.96;100384.23;118094;1184;23425;-58
2022/06/05 11:18:46;;;;;;;4.80;2.20;;;;;;;24.47;46.04;100381.19;117546;1181;22134;-53
2022/06/05 11:21:16;;;;;;;9.90;2.30;;;;;;;24.44;45.96;100377.06;117343;1184;23541;-53
2022/06/05 11:23:51;;;;;;;4.80;2.60;;;;;;;24.38;45.91;100375.86;117291;1186;23541;-54
2022/06/05 11:26:29;;;;;;;3.80;2.50;;;;;;;24.35;46.07;100374.23;118357;1183;22887;-59
2022/06/05 11:29:08;;;;;;;5.10;2.40;;;;;;;24.32;46.04;100377.67;117203;1184;21917;-59
2022/06/05 11:31:53;;;;;;;3.40;2.20;;;;;;;24.26;46.06;100377.42;117349;1185;23643;-59
2022/06/05 11:34:38;;;;;;;4.10;2.10;;;;;;;24.19;46.19;100377.14;117425;1181;21948;-55
2022/06/05 11:37:15;;;;;;;4.00;2.70;;;;;;;24.12;46.12;100373.52;117278;1182;23493;-55
2022/06/05 11:39:49;;;;;;;3.80;2.20;;;;;;;24.10;46.28;100374.40;117378;1185;21858;-54
2022/06/05 11:42:23;;;;;;;3.80;2.20;;;;;;;24.09;46.39;100379.30;117361;1186;21848;-54
2022/06/05 11:45:05;;;;;;;3.40;2.00;;;;;;;24.10;46.40;100378.85;117320;1185;21855;-59
2022/06/05 11:47:51;;;;;;;2.40;2.00;;;;;;;24.12;46.46;100384.47;117277;1183;22649;-58
2022/06/05 11:50:33;;;;;;;3.50;2.60;;;;;;;24.05;46.57;100388.38;117334;1186;23624;-58
2022/06/05 11:53:09;;;;;;;3.20;2.10;;;;;;;23.98;46.59;100392.95;117329;1180;22985;-59
2022/06/05 11:55:46;;;;;;;3.80;2.20;;;;;;;23.95;46.67;100390.82;117369;1182;21957;-58
2022/06/05 11:58:17;;;;;;;6.20;2.30;;;;;;;23.97;46.82;100391.73;117334;1183;23465;-58
2022/06/05 12:00:55;;;;;;;3.70;2.60;;;;;;;24.02;46.74;100390.32;117316;1185;21824;-59
2022/06/05 12:03:36;;;;;;;3.40;2.30;;;;;;;24.08;46.92;100388.85;117342;1183;22915;-59